createdAt,value
2018-11-05T00:00:39.848Z,10.43
2018-11-05T00:03:08.678Z,9.00
2018-11-05T00:05:37.316Z,16.23
2018-11-05T00:08:06.322Z,12.77
2018-11-05T00:10:35.109Z,11.80
2018-11-05T00:13:03.460Z,13.27
2018-11-05T00:15:32.404Z,6.73
2018-11-05T00:18:01.039Z,5.67
2018-11-05T00:20:29.775Z,10.17
2018-11-05T00:22:58.312Z,13.60
2018-11-05T00:25:27.387Z,11.13
2018-11-05T00:27:56.134Z,16.77
2018-11-05T00:30:24.820Z,14.17
2018-11-05T00:32:53.761Z,8.80
2018-11-05T00:35:22.408Z,18.30
2018-11-05T00:37:51.331Z,9.13
2018-11-05T00:40:19.942Z,10.43
2018-11-05T00:42:48.436Z,12.10
2018-11-05T00:45:17.092Z,9.27
2018-11-05T00:47:45.868Z,10.57
2018-11-05T00:50:15.765Z,16.63
2018-11-05T00:52:44.636Z,5.60
2018-11-05T00:55:13.466Z,9.83
2018-11-05T00:57:42.139Z,6.80
2018-11-05T01:00:11.986Z,9.53
2018-11-05T01:02:40.964Z,10.93
2018-11-05T01:05:11.196Z,11.53
2018-11-05T01:07:40.316Z,6.03
2018-11-05T01:10:10.073Z,13.47
2018-11-05T01:12:38.607Z,7.50
2018-11-05T01:15:09.249Z,14.77
2018-11-05T01:17:38.040Z,10.97
2018-11-05T01:20:07.557Z,9.87
2018-11-05T01:22:36.268Z,13.77
2018-11-05T01:25:05.266Z,8.57
2018-11-05T01:27:33.557Z,4.53
2018-11-05T01:30:02.361Z,21.40
2018-11-05T01:32:30.992Z,15.70
2018-11-05T01:34:59.304Z,7.03
2018-11-05T01:37:27.826Z,9.20
2018-11-05T01:39:56.812Z,11.20
2018-11-05T01:42:25.103Z,11.03
2018-11-05T01:44:53.966Z,13.33
2018-11-05T01:47:22.759Z,16.33
2018-11-05T01:49:51.267Z,7.60
2018-11-05T01:52:19.689Z,15.00
2018-11-05T01:54:48.458Z,13.03
2018-11-05T01:57:16.988Z,11.37
2018-11-05T01:59:45.765Z,10.77
2018-11-05T02:02:14.265Z,12.10
2018-11-05T02:04:42.577Z,13.97
2018-11-05T02:07:11.058Z,13.03
2018-11-05T02:09:39.694Z,14.10
2018-11-05T02:12:08.339Z,8.43
2018-11-05T02:14:37.259Z,15.73
2018-11-05T02:17:06.201Z,13.33
2018-11-05T02:19:34.676Z,15.40
2018-11-05T02:22:03.481Z,11.13
2018-11-05T02:24:32.082Z,7.37
2018-11-05T02:27:00.520Z,9.07
2018-11-05T02:29:29.213Z,13.87
2018-11-05T02:31:58.029Z,7.37
2018-11-05T02:34:26.625Z,12.10
2018-11-05T02:36:55.273Z,8.03
2018-11-05T02:39:23.963Z,12.17
2018-11-05T02:41:52.491Z,6.73
2018-11-05T02:44:21.168Z,19.70
2018-11-05T02:46:50.129Z,9.77
2018-11-05T02:49:18.505Z,5.83
2018-11-05T02:51:47.336Z,7.57
2018-11-05T02:54:16.524Z,12.70
2018-11-05T02:56:45.460Z,9.33
2018-11-05T02:59:14.292Z,9.53
2018-11-05T03:01:43.139Z,16.67
2018-11-05T03:04:11.885Z,9.57
2018-11-05T03:06:40.562Z,7.17
2018-11-05T03:09:11.036Z,11.03
2018-11-05T03:11:40.244Z,12.07
2018-11-05T03:14:09.232Z,14.57
2018-11-05T03:16:38.061Z,10.50
2018-11-05T03:19:06.969Z,9.07
2018-11-05T03:21:35.743Z,13.37
2018-11-05T03:24:04.203Z,13.13
2018-11-05T03:26:32.810Z,17.83
2018-11-05T03:29:01.883Z,10.73
2018-11-05T03:31:30.595Z,13.10
2018-11-05T03:33:59.269Z,9.20
2018-11-05T03:36:28.025Z,14.40
2018-11-05T03:38:56.744Z,22.67
2018-11-05T03:41:25.081Z,14.87
2018-11-05T03:43:54.213Z,13.43
2018-11-05T03:46:23.511Z,11.33
2018-11-05T03:48:51.872Z,17.33
2018-11-05T03:51:20.740Z,8.93
2018-11-05T03:53:49.644Z,9.03
2018-11-05T03:56:18.139Z,12.33
2018-11-05T03:58:46.930Z,9.80
2018-11-05T04:01:15.901Z,10.43
2018-11-05T04:03:44.224Z,6.40
2018-11-05T04:06:12.997Z,9.00
2018-11-05T04:08:41.759Z,9.80
2018-11-05T04:11:10.090Z,15.27
2018-11-05T04:13:38.937Z,11.07
2018-11-05T04:16:07.532Z,15.17
2018-11-05T04:18:36.415Z,14.70
2018-11-05T04:21:05.599Z,7.83
2018-11-05T04:23:34.351Z,14.20
2018-11-05T04:26:02.905Z,5.90
2018-11-05T04:28:31.780Z,18.60
2018-11-05T04:31:00.704Z,8.47
2018-11-05T04:33:29.146Z,8.23
2018-11-05T04:35:57.972Z,12.67
2018-11-05T04:38:26.606Z,14.17
2018-11-05T04:40:55.427Z,12.63
2018-11-05T04:43:24.200Z,9.63
2018-11-05T04:45:52.649Z,9.03
2018-11-05T04:48:21.119Z,13.23
2018-11-05T04:50:49.778Z,15.13
2018-11-05T04:53:19.027Z,16.27
2018-11-05T04:55:47.493Z,11.43
2018-11-05T04:58:16.298Z,14.57
2018-11-05T05:00:44.786Z,12.33
2018-11-05T05:03:13.184Z,11.90
2018-11-05T05:05:41.900Z,17.33
2018-11-05T05:08:10.504Z,12.00
2018-11-05T05:10:38.946Z,15.80
2018-11-05T05:13:07.637Z,25.97
2018-11-05T05:15:36.429Z,12.70
2018-11-05T05:18:05.139Z,17.23
2018-11-05T05:20:33.696Z,8.50
2018-11-05T05:23:02.431Z,18.53
2018-11-05T05:25:31.212Z,20.80
2018-11-05T05:27:59.736Z,18.07
2018-11-05T05:30:28.588Z,13.17
2018-11-05T05:32:56.904Z,17.50
2018-11-05T05:35:25.642Z,28.67
2018-11-05T05:37:54.503Z,21.67
2018-11-05T05:40:22.842Z,15.23
2018-11-05T05:42:51.580Z,16.00
2018-11-05T05:45:20.436Z,16.50
2018-11-05T05:47:48.814Z,13.40
2018-11-05T05:50:18.002Z,10.30
2018-11-05T05:52:47.856Z,18.80
2018-11-05T05:55:16.438Z,15.60
2018-11-05T05:57:45.524Z,7.93
2018-11-05T06:00:15.407Z,18.87
2018-11-05T06:02:43.914Z,13.83
2018-11-05T06:05:13.547Z,16.93
2018-11-05T06:07:42.382Z,8.43
2018-11-05T06:10:11.910Z,21.70
2018-11-05T06:12:41.134Z,19.90
2018-11-05T06:15:11.382Z,18.60
2018-11-05T06:17:39.872Z,24.77
2018-11-05T06:20:11.007Z,17.67
2018-11-05T06:22:39.672Z,25.27
2018-11-05T06:25:08.481Z,15.03
2018-11-05T06:27:37.852Z,19.40
2018-11-05T06:30:09.710Z,24.87
2018-11-05T06:32:40.078Z,32.43
2018-11-05T06:35:09.295Z,25.70
2018-11-05T06:37:38.637Z,28.60
2018-11-05T06:40:08.493Z,21.97
2018-11-05T06:42:36.971Z,24.03
2018-11-05T06:45:07.040Z,26.47
2018-11-05T06:47:36.545Z,20.80
2018-11-05T06:50:07.885Z,31.93
2018-11-05T06:52:36.519Z,16.63
2018-11-05T06:55:05.455Z,17.20
2018-11-05T06:57:33.837Z,23.53
2018-11-05T07:00:02.903Z,25.07
2018-11-05T07:02:31.763Z,27.30
2018-11-05T07:05:00.318Z,32.33
2018-11-05T07:07:28.874Z,32.20
2018-11-05T07:09:57.606Z,28.70
2018-11-05T07:12:26.032Z,25.67
2018-11-05T07:14:54.630Z,24.57
2018-11-05T07:17:24.301Z,44.90
2018-11-05T07:19:52.826Z,18.63
2018-11-05T07:22:21.470Z,27.17
2018-11-05T07:24:50.609Z,27.73
2018-11-05T07:27:18.932Z,29.30
2018-11-05T07:29:47.676Z,31.13
2018-11-05T07:32:16.399Z,31.67
2018-11-05T07:34:45.033Z,24.10
2018-11-05T07:37:13.951Z,47.53
2018-11-05T07:39:42.486Z,26.57
2018-11-05T07:42:10.917Z,41.67
2018-11-05T07:44:39.748Z,24.53
2018-11-05T07:47:08.359Z,31.70
2018-11-05T07:49:36.688Z,30.47
2018-11-05T07:52:05.935Z,25.80
2018-11-05T07:54:35.030Z,24.00
2018-11-05T07:57:03.337Z,23.67
2018-11-05T07:59:32.280Z,26.53
2018-11-05T08:02:01.395Z,38.13
2018-11-05T08:04:29.971Z,38.90
2018-11-05T08:06:59.273Z,36.70
2018-11-05T08:09:27.905Z,39.60
2018-11-05T08:11:56.393Z,37.37
2018-11-05T08:14:25.368Z,57.30
2018-11-05T08:16:53.961Z,40.70
2018-11-05T08:19:22.699Z,34.90
2018-11-05T08:21:51.583Z,32.43
2018-11-05T08:24:20.245Z,33.10
2018-11-05T08:26:48.929Z,34.97
2018-11-05T08:29:17.803Z,29.57
2018-11-05T08:31:46.492Z,37.97
2018-11-05T08:34:15.084Z,49.00
2018-11-05T08:36:43.839Z,32.23
2018-11-05T08:39:13.233Z,30.10
2018-11-05T08:41:41.633Z,34.47
2018-11-05T08:44:10.825Z,36.63
2018-11-05T08:46:40.076Z,32.13
2018-11-05T08:49:08.812Z,31.17
2018-11-05T08:51:37.493Z,23.83
2018-11-05T08:54:06.174Z,33.17
2018-11-05T08:56:34.551Z,25.30
2018-11-05T08:59:03.541Z,22.70
2018-11-05T09:01:32.131Z,26.63
2018-11-05T09:04:00.811Z,31.07
2018-11-05T09:06:29.856Z,20.23
2018-11-05T09:08:58.152Z,25.43
2018-11-05T09:11:27.698Z,21.10
2018-11-05T09:13:56.057Z,21.40
2018-11-05T09:16:24.551Z,16.17
2018-11-05T09:18:52.879Z,15.00
2018-11-05T09:21:21.974Z,19.30
2018-11-05T09:23:50.750Z,18.07
2018-11-05T09:26:19.130Z,22.87
2018-11-05T09:28:48.324Z,19.53
2018-11-05T09:31:17.269Z,14.93
2018-11-05T09:33:45.768Z,19.27
2018-11-05T09:36:14.662Z,18.17
2018-11-05T09:38:43.476Z,14.60
2018-11-05T09:41:12.158Z,16.33
2018-11-05T09:43:41.367Z,14.13
2018-11-05T09:46:10.006Z,13.33
2018-11-05T09:48:38.478Z,14.30
2018-11-05T09:51:07.515Z,20.03
2018-11-05T09:53:36.505Z,10.93
2018-11-05T09:56:05.329Z,12.27
2018-11-05T09:58:34.418Z,14.03
2018-11-05T10:01:03.175Z,11.70
2018-11-05T10:03:31.753Z,15.50
2018-11-05T10:06:00.215Z,19.33
2018-11-05T10:08:28.924Z,11.93
2018-11-05T10:10:57.311Z,16.40
2018-11-05T10:13:26.291Z,10.50
2018-11-05T10:15:55.577Z,15.67
2018-11-05T10:18:23.921Z,21.70
2018-11-05T10:20:52.596Z,10.73
2018-11-05T10:23:21.334Z,11.00
2018-11-05T10:25:50.037Z,13.67
2018-11-05T10:28:18.533Z,10.07
2018-11-05T10:30:47.390Z,20.37
2018-11-05T10:33:15.817Z,15.50
2018-11-05T10:35:49.818Z,15.73
2018-11-05T10:38:18.890Z,14.60
2018-11-05T10:40:47.212Z,10.50
2018-11-05T10:43:15.884Z,15.30
2018-11-05T10:45:44.908Z,16.93
2018-11-05T10:48:13.714Z,15.57
2018-11-05T10:50:42.456Z,17.33
2018-11-05T10:53:11.353Z,12.77
2018-11-05T10:55:39.837Z,12.77
2018-11-05T10:58:08.502Z,16.73
2018-11-05T11:00:42.155Z,15.50
2018-11-05T11:03:17.192Z,15.40
2018-11-05T11:05:45.780Z,17.97
2018-11-05T11:08:14.148Z,15.57
2018-11-05T11:10:43.088Z,9.07
2018-11-05T11:13:11.532Z,17.13
2018-11-05T11:15:39.996Z,15.67
2018-11-05T11:18:08.990Z,10.40
2018-11-05T11:20:37.911Z,10.63
2018-11-05T11:23:06.237Z,10.40
2018-11-05T11:25:35.352Z,13.03
2018-11-05T11:28:04.116Z,11.70
2018-11-05T11:30:32.724Z,11.77
2018-11-05T11:33:01.859Z,15.70
2018-11-05T11:35:30.175Z,13.03
2018-11-05T11:37:58.719Z,12.80
2018-11-05T11:40:27.770Z,12.20
2018-11-05T11:42:56.098Z,15.07
2018-11-05T11:45:24.975Z,12.50
2018-11-05T11:47:54.353Z,13.90
2018-11-05T11:50:22.668Z,15.07
2018-11-05T11:52:51.676Z,15.30
2018-11-05T11:55:21.558Z,12.83
2018-11-05T11:57:49.919Z,10.87
2018-11-05T12:00:23.739Z,13.23
2018-11-05T12:02:52.737Z,18.33
2018-11-05T12:05:21.627Z,15.20
2018-11-05T12:07:50.658Z,20.63
2018-11-05T12:10:21.113Z,14.97
2018-11-05T12:12:49.889Z,16.93
2018-11-05T12:15:19.341Z,18.70
2018-11-05T12:17:48.982Z,22.23
2018-11-05T12:20:18.790Z,18.23
2018-11-05T12:22:48.308Z,20.43
2018-11-05T12:25:16.915Z,16.93
2018-11-05T12:27:45.270Z,15.73
2018-11-05T12:30:16.133Z,14.27
2018-11-05T12:32:45.727Z,20.40
2018-11-05T12:35:14.464Z,18.13
2018-11-05T12:37:44.158Z,22.37
2018-11-05T12:40:14.432Z,20.70
2018-11-05T12:42:43.662Z,21.77
2018-11-05T12:45:12.515Z,23.60
2018-11-05T12:47:40.965Z,18.87
2018-11-05T12:50:18.400Z,18.17
2018-11-05T12:52:47.778Z,16.90
2018-11-05T12:55:16.572Z,16.17
2018-11-05T12:57:45.513Z,11.73
2018-11-05T13:00:16.641Z,13.43
2018-11-05T13:02:49.836Z,12.77
2018-11-05T13:05:18.744Z,13.30
2018-11-05T13:07:47.285Z,14.47
2018-11-05T13:10:15.897Z,15.23
2018-11-05T13:12:44.546Z,14.50
2018-11-05T13:15:13.023Z,12.87
2018-11-05T13:17:42.478Z,10.60
2018-11-05T13:20:14.276Z,12.73
2018-11-05T13:22:43.574Z,9.80
2018-11-05T13:25:12.197Z,12.53
2018-11-05T13:27:41.984Z,10.90
2018-11-05T13:30:11.541Z,12.77
2018-11-05T13:32:40.610Z,8.53
2018-11-05T13:35:10.988Z,11.73
2018-11-05T13:37:40.240Z,8.87
2018-11-05T13:40:10.628Z,9.60
2018-11-05T13:42:39.004Z,7.90
2018-11-05T13:45:09.152Z,8.40
2018-11-05T13:47:38.488Z,11.23
2018-11-05T13:50:07.180Z,9.07
2018-11-05T13:52:35.678Z,13.07
2018-11-05T13:55:04.965Z,11.50
2018-11-05T13:57:33.255Z,7.63
2018-11-05T14:00:01.880Z,10.67
2018-11-05T14:02:30.487Z,9.33
2018-11-05T14:04:59.201Z,9.17
2018-11-05T14:07:28.399Z,10.10
2018-11-05T14:09:57.163Z,9.70
2018-11-05T14:12:25.972Z,6.80
2018-11-05T14:14:54.760Z,6.83
2018-11-05T14:17:23.720Z,9.70
2018-11-05T14:19:52.223Z,7.80
2018-11-05T14:22:20.813Z,8.27
2018-11-05T14:24:49.445Z,7.90
2018-11-05T14:27:17.831Z,7.57
2018-11-05T14:29:47.264Z,5.53
2018-11-05T14:32:15.934Z,7.30
2018-11-05T14:34:44.388Z,9.43
2018-11-05T14:37:13.222Z,10.37
2018-11-05T14:39:42.326Z,10.37
2018-11-05T14:42:11.112Z,9.27
2018-11-05T14:44:40.207Z,9.17
2018-11-05T14:47:08.709Z,7.23
2018-11-05T14:49:37.143Z,9.27
2018-11-05T14:52:05.954Z,7.97
2018-11-05T14:54:34.714Z,9.80
2018-11-05T14:57:03.514Z,14.43
2018-11-05T14:59:32.478Z,10.77
2018-11-05T15:02:06.151Z,11.63
2018-11-05T15:04:35.049Z,12.10
2018-11-05T15:07:03.503Z,13.67
2018-11-05T15:09:31.985Z,10.50
2018-11-05T15:12:01.267Z,11.53
2018-11-05T15:14:30.163Z,10.47
2018-11-05T15:16:58.826Z,10.27
2018-11-05T15:19:28.718Z,11.03
2018-11-05T15:21:56.584Z,8.77
2018-11-05T15:24:24.924Z,9.97
2018-11-05T15:26:53.923Z,12.07
2018-11-05T15:29:22.633Z,12.70
2018-11-05T15:31:51.141Z,7.47
2018-11-05T15:34:20.264Z,9.60
2018-11-05T15:36:48.592Z,13.43
2018-11-05T15:39:17.415Z,9.27
2018-11-05T15:41:46.464Z,12.93
2018-11-05T15:44:14.990Z,10.40
2018-11-05T15:46:43.717Z,12.83
2018-11-05T15:49:12.770Z,10.03
2018-11-05T15:51:41.412Z,10.00
2018-11-05T15:54:09.628Z,7.80
2018-11-05T15:56:39.129Z,10.40
2018-11-05T15:59:07.444Z,10.37
2018-11-05T16:01:36.055Z,7.77
2018-11-05T16:04:05.333Z,9.33
2018-11-05T16:06:34.044Z,7.40
2018-11-05T16:09:02.384Z,13.73
2018-11-05T16:11:31.414Z,8.77
2018-11-05T16:14:00.122Z,15.53
2018-11-05T16:16:28.434Z,11.47
2018-11-05T16:18:57.139Z,7.40
2018-11-05T16:21:25.669Z,6.43
2018-11-05T16:23:54.491Z,10.93
2018-11-05T16:26:23.593Z,8.57
2018-11-05T16:28:51.968Z,8.67
2018-11-05T16:31:20.258Z,8.60
2018-11-05T16:33:49.254Z,14.10
2018-11-05T16:36:17.618Z,18.93
2018-11-05T16:38:46.335Z,21.00
2018-11-05T16:41:15.193Z,18.73
2018-11-05T16:43:43.536Z,21.70
2018-11-05T16:46:12.000Z,17.33
2018-11-05T16:48:41.201Z,18.30
2018-11-05T16:51:09.559Z,14.03
2018-11-05T16:53:38.501Z,17.13
2018-11-05T16:56:07.407Z,16.63
2018-11-05T16:58:35.816Z,12.20
2018-11-05T17:01:04.392Z,9.17
2018-11-05T17:03:33.169Z,12.63
2018-11-05T17:06:01.494Z,13.20
2018-11-05T17:08:30.141Z,11.93
2018-11-05T17:10:59.228Z,13.23
2018-11-05T17:13:27.628Z,9.43
2018-11-05T17:15:56.055Z,14.60
2018-11-05T17:18:25.111Z,18.20
2018-11-05T17:20:53.649Z,11.00
2018-11-05T17:23:21.984Z,13.37
2018-11-05T17:25:51.030Z,9.17
2018-11-05T17:28:19.742Z,14.33
2018-11-05T17:30:48.109Z,15.33
2018-11-05T17:33:16.780Z,13.07
2018-11-05T17:35:45.161Z,9.40
2018-11-05T17:38:13.669Z,12.83
2018-11-05T17:40:42.832Z,10.67
2018-11-05T17:43:11.191Z,13.30
2018-11-05T17:45:39.528Z,9.07
2018-11-05T17:48:08.449Z,12.73
2018-11-05T17:50:37.320Z,16.27
2018-11-05T17:53:05.863Z,11.27
2018-11-05T17:55:34.935Z,14.83
2018-11-05T17:58:03.305Z,15.60
2018-11-05T18:00:31.594Z,12.87
2018-11-05T18:03:00.697Z,11.40
2018-11-05T18:05:29.149Z,13.93
2018-11-05T18:07:57.464Z,15.63
2018-11-05T18:10:26.880Z,14.70
2018-11-05T18:12:55.167Z,14.00
2018-11-05T18:15:23.569Z,15.43
2018-11-05T18:17:52.525Z,11.40
2018-11-05T18:20:20.913Z,11.33
2018-11-05T18:22:49.587Z,10.47
2018-11-05T18:25:19.438Z,13.80
2018-11-05T18:27:48.081Z,13.10
2018-11-05T18:30:18.077Z,11.53
2018-11-05T18:32:47.376Z,16.47
2018-11-05T18:35:16.056Z,10.83
2018-11-05T18:37:48.092Z,10.77
2018-11-05T18:40:16.681Z,11.20
2018-11-05T18:42:45.764Z,10.40
2018-11-05T18:45:14.985Z,8.00
2018-11-05T18:47:43.658Z,9.70
2018-11-05T18:50:13.770Z,11.83
2018-11-05T18:52:42.980Z,10.50
2018-11-05T18:55:13.125Z,15.50
2018-11-05T18:57:41.722Z,12.07
2018-11-05T19:00:17.416Z,12.77
2018-11-05T19:02:46.355Z,13.60
2018-11-05T19:05:14.622Z,9.93
2018-11-05T19:07:43.905Z,10.87
2018-11-05T19:10:12.654Z,12.67
2018-11-05T19:12:41.051Z,11.73
2018-11-05T19:15:10.579Z,9.20
2018-11-05T19:17:38.944Z,10.30
2018-11-05T19:20:08.366Z,9.03
2018-11-05T19:22:37.500Z,9.60
2018-11-05T19:25:07.339Z,10.33
2018-11-05T19:27:36.307Z,10.53
2018-11-05T19:30:07.501Z,9.37
2018-11-05T19:32:36.437Z,14.07
2018-11-05T19:35:06.311Z,8.90
2018-11-05T19:37:35.276Z,13.17
2018-11-05T19:40:04.029Z,7.90
2018-11-05T19:42:32.568Z,7.93
2018-11-05T19:45:01.771Z,8.83
2018-11-05T19:47:30.676Z,8.93
2018-11-05T19:50:08.324Z,16.57
2018-11-05T19:52:37.241Z,8.40
2018-11-05T19:55:07.316Z,12.43
2018-11-05T19:57:37.240Z,8.03
2018-11-05T20:00:13.124Z,8.07
2018-11-05T20:02:43.063Z,9.50
2018-11-05T20:05:11.763Z,12.23
2018-11-05T20:07:40.099Z,10.63
2018-11-05T20:10:09.522Z,7.87
2018-11-05T20:12:38.464Z,9.07
2018-11-05T20:15:07.861Z,7.73
2018-11-05T20:17:37.881Z,10.27
2018-11-05T20:20:07.423Z,10.60
2018-11-05T20:22:35.827Z,8.53
2018-11-05T20:25:05.800Z,7.27
2018-11-05T20:27:34.155Z,13.77
2018-11-05T20:30:02.947Z,7.27
2018-11-05T20:32:32.189Z,7.37
2018-11-05T20:35:00.191Z,9.57
2018-11-05T20:37:28.969Z,8.17
2018-11-05T20:39:58.001Z,8.93
2018-11-05T20:42:26.671Z,8.87
2018-11-05T20:44:54.995Z,8.83
2018-11-05T20:47:24.234Z,9.20
2018-11-05T20:49:52.539Z,9.00
2018-11-05T20:52:20.907Z,11.10
2018-11-05T20:54:50.007Z,7.83
2018-11-05T20:57:18.831Z,8.37
2018-11-05T20:59:47.159Z,7.20
2018-11-05T21:02:16.199Z,8.97
2018-11-05T21:04:44.572Z,8.90
2018-11-05T21:07:13.343Z,8.63
2018-11-05T21:09:42.414Z,9.77
2018-11-05T21:12:11.128Z,9.70
2018-11-05T21:14:39.823Z,6.37
2018-11-05T21:17:08.774Z,9.23
2018-11-05T21:19:37.374Z,10.00
2018-11-05T21:22:07.974Z,11.60
2018-11-05T21:24:37.436Z,12.83
2018-11-05T21:27:06.350Z,9.90
2018-11-05T21:29:34.619Z,13.63
2018-11-05T21:32:03.420Z,9.80
2018-11-05T21:34:32.112Z,10.30
2018-11-05T21:37:00.592Z,8.70
2018-11-05T21:39:30.013Z,10.87
2018-11-05T21:41:58.748Z,10.63
2018-11-05T21:44:27.157Z,8.53
2018-11-05T21:46:56.026Z,11.73
2018-11-05T21:49:24.355Z,13.87
2018-11-05T21:51:52.671Z,10.03
2018-11-05T21:54:21.693Z,12.90
2018-11-05T21:56:50.292Z,10.60
2018-11-05T21:59:18.586Z,9.83
2018-11-05T22:01:47.875Z,11.30
2018-11-05T22:04:16.171Z,10.33
2018-11-05T22:06:44.482Z,10.50
2018-11-05T22:09:13.860Z,13.23
2018-11-05T22:11:42.514Z,11.37
2018-11-05T22:14:10.886Z,13.37
2018-11-05T22:16:40.287Z,10.20
2018-11-05T22:19:08.597Z,9.37
2018-11-05T22:21:36.933Z,10.53
2018-11-05T22:24:06.794Z,12.20
2018-11-05T22:26:35.206Z,12.20
2018-11-05T22:29:03.532Z,9.53
2018-11-05T22:31:32.500Z,13.90
2018-11-05T22:34:00.849Z,11.00
2018-11-05T22:36:29.497Z,10.27
2018-11-05T22:38:58.745Z,9.30
2018-11-05T22:41:27.084Z,12.27
2018-11-05T22:43:56.179Z,12.40
2018-11-05T22:46:25.111Z,12.87
2018-11-05T22:48:53.850Z,9.50
2018-11-05T22:51:22.149Z,13.90
2018-11-05T22:53:51.169Z,11.80
2018-11-05T22:56:19.572Z,8.77
2018-11-05T22:58:47.903Z,12.53
2018-11-05T23:01:22.143Z,16.03
2018-11-05T23:03:50.750Z,13.50
2018-11-05T23:06:19.154Z,14.70
2018-11-05T23:08:47.890Z,10.63
2018-11-05T23:11:16.773Z,14.53
2018-11-05T23:13:45.101Z,12.80
2018-11-05T23:16:13.777Z,12.53
2018-11-05T23:18:42.741Z,15.10
2018-11-05T23:21:11.061Z,11.47
2018-11-05T23:23:39.685Z,13.07
2018-11-05T23:26:08.469Z,16.37
2018-11-05T23:28:37.003Z,11.93
2018-11-05T23:31:05.900Z,10.63
2018-11-05T23:33:35.280Z,11.47
2018-11-05T23:36:03.556Z,12.40
2018-11-05T23:38:32.107Z,13.73
2018-11-05T23:41:01.089Z,22.57
2018-11-05T23:43:29.591Z,16.30
2018-11-05T23:45:58.166Z,13.57
2018-11-05T23:48:27.605Z,15.57
2018-11-05T23:50:55.979Z,13.37
2018-11-05T23:53:24.666Z,13.67
2018-11-05T23:55:53.666Z,16.40
2018-11-05T23:58:22.092Z,14.20
